Time,TemperatureF,DewpointF,PressureIn,WindDirection,WindDirectionDegrees,WindSpeedMPH,WindSpeedGustMPH,Humidity,HourlyPrecipIn,Conditions,Clouds,dailyrainin,SoftwareType,DateUTC
2013-10-15 00:00:00,58.4,50.5,30.17,WSW,253,1.0,7.0,75,0.00,,,0.00,Wunderground v.1.13,2013-10-15 04:00:00,
2013-10-15 00:05:00,58.3,50.8,30.17,WSW,253,0.0,7.0,76,0.00,,,0.00,Wunderground v.1.13,2013-10-15 04:05:00,
2013-10-15 00:10:00,58.1,50.6,30.17,WSW,253,0.0,7.0,76,0.00,,,0.00,Wunderground v.1.13,2013-10-15 04:10:00,
2013-10-15 00:15:00,58.1,50.6,30.17,WSW,253,0.0,7.0,76,0.00,,,0.00,Wunderground v.1.13,2013-10-15 04:15:00,
2013-10-15 00:20:00,58.0,50.8,30.16,WSW,253,0.0,7.0,77,0.00,,,0.00,Wunderground v.1.13,2013-10-15 04:20:00,
2013-10-15 00:25:00,58.0,50.8,30.16,WSW,253,0.0,7.0,77,0.00,,,0.00,Wunderground v.1.13,2013-10-15 04:25:00,
2013-10-15 00:30:00,57.8,50.6,30.16,WSW,253,0.0,7.0,77,0.00,,,0.00,Wunderground v.1.13,2013-10-15 04:30:00,
2013-10-15 00:40:00,58.0,51.5,30.15,WSW,253,0.0,7.0,79,0.00,,,0.00,Wunderground v.1.13,2013-10-15 04:40:00,
2013-10-15 00:45:00,58.1,52.0,30.15,WSW,253,0.0,7.0,80,0.00,,,0.00,Wunderground v.1.13,2013-10-15 04:45:00,
2013-10-15 00:50:00,58.3,52.2,30.15,WSW,253,0.0,7.0,80,0.00,,,0.00,Wunderground v.1.13,2013-10-15 04:50:00,
2013-10-15 00:55:00,58.3,51.8,30.15,WSW,253,0.0,7.0,79,0.00,,,0.00,Wunderground v.1.13,2013-10-15 04:55:00,
2013-10-15 01:00:00,58.4,52.3,30.15,WSW,253,0.0,7.0,80,0.00,,,0.00,Wunderground v.1.13,2013-10-15 05:00:00,
2013-10-15 01:05:00,58.4,52.3,30.15,WSW,253,0.0,7.0,80,0.00,,,0.00,Wunderground v.1.13,2013-10-15 05:05:00,
2013-10-15 01:15:00,58.7,53.2,30.15,WSW,253,0.0,7.0,82,0.00,,,0.00,Wunderground v.1.13,2013-10-15 05:15:00,
2013-10-15 01:20:00,58.7,53.2,30.15,WSW,253,0.0,7.0,82,0.00,,,0.00,Wunderground v.1.13,2013-10-15 05:20:00,
2013-10-15 01:25:00,58.6,52.8,30.15,WSW,253,0.0,7.0,81,0.00,,,0.00,Wunderground v.1.13,2013-10-15 05:25:00,
2013-10-15 01:30:00,58.6,52.4,30.15,WSW,253,0.0,7.0,80,0.00,,,0.00,Wunderground v.1.13,2013-10-15 05:30:00,
2013-10-15 01:35:00,58.4,51.9,30.15,WSW,253,0.0,7.0,79,0.00,,,0.00,Wunderground v.1.13,2013-10-15 05:35:00,
2013-10-15 01:45:00,58.3,51.8,30.15,SSW,213,0.0,7.0,79,0.00,,,0.00,Wunderground v.1.13,2013-10-15 05:45:00,
2013-10-15 01:50:00,58.3,52.2,30.14,WSW,253,0.0,7.0,80,0.00,,,0.00,Wunderground v.1.13,2013-10-15 05:50:00,
2013-10-15 01:55:00,58.3,52.2,30.14,WSW,253,0.0,7.0,80,0.00,,,0.00,Wunderground v.1.13,2013-10-15 05:55:00,
2013-10-15 02:00:00,58.3,52.5,30.14,WSW,253,0.0,7.0,81,0.00,,,0.00,Wunderground v.1.13,2013-10-15 06:00:00,
2013-10-15 02:05:00,58.3,52.5,30.14,WSW,253,1.0,1.0,81,0.00,,,0.00,Wunderground v.1.13,2013-10-15 06:05:00,
2013-10-15 02:10:00,58.3,52.8,30.14,SSW,213,0.0,7.0,82,0.00,,,0.00,Wunderground v.1.13,2013-10-15 06:10:00,
2013-10-15 02:20:00,58.1,52.3,30.13,WSW,253,0.0,7.0,81,0.00,,,0.00,Wunderground v.1.13,2013-10-15 06:20:00,
2013-10-15 02:25:00,58.0,52.2,30.13,WSW,253,0.0,7.0,81,0.00,,,0.00,Wunderground v.1.13,2013-10-15 06:25:00,
2013-10-15 02:30:00,57.8,51.7,30.13,WSW,253,0.0,7.0,80,0.00,,,0.00,Wunderground v.1.13,2013-10-15 06:30:00,
2013-10-15 02:35:00,57.6,51.1,30.13,WSW,253,0.0,7.0,79,0.00,,,0.00,Wunderground v.1.13,2013-10-15 06:35:00,
2013-10-15 02:40:00,57.5,51.0,30.13,WSW,253,0.0,7.0,79,0.00,,,0.00,Wunderground v.1.13,2013-10-15 06:40:00,
2013-10-15 02:45:00,57.5,51.4,30.13,WSW,253,0.0,7.0,80,0.00,,,0.00,Wunderground v.1.13,2013-10-15 06:45:00,
2013-10-15 02:50:00,57.5,51.4,30.12,WSW,253,0.0,7.0,80,0.00,,,0.00,Wunderground v.1.13,2013-10-15 06:50:00,
2013-10-15 02:55:00,57.3,51.2,30.12,WSW,253,0.0,7.0,80,0.00,,,0.00,Wunderground v.1.13,2013-10-15 06:55:00,
2013-10-15 03:00:00,57.3,51.2,30.12,WSW,253,0.0,7.0,80,0.00,,,0.00,Wunderground v.1.13,2013-10-15 07:00:00,
2013-10-15 03:05:00,57.2,51.1,30.11,WSW,253,0.0,7.0,80,0.00,,,0.00,Wunderground v.1.13,2013-10-15 07:05:00,
2013-10-15 03:10:00,57.2,51.1,30.11,WSW,253,0.0,7.0,80,0.00,,,0.00,Wunderground v.1.13,2013-10-15 07:10:00,
2013-10-15 03:20:00,57.2,51.8,30.11,WSW,253,0.0,7.0,82,0.00,,,0.00,Wunderground v.1.13,2013-10-15 07:20:00,
2013-10-15 03:25:00,57.2,51.8,30.11,WSW,253,0.0,7.0,82,0.00,,,0.00,Wunderground v.1.13,2013-10-15 07:25:00,
2013-10-15 03:30:00,57.0,51.6,30.11,WSW,253,0.0,7.0,82,0.00,,,0.00,Wunderground v.1.13,2013-10-15 07:30:00,
2013-10-15 03:35:00,56.9,51.1,30.11,WSW,253,0.0,7.0,81,0.00,,,0.00,Wunderground v.1.13,2013-10-15 07:35:00,
2013-10-15 03:40:00,56.7,50.9,30.11,WSW,253,0.0,7.0,81,0.00,,,0.00,Wunderground v.1.13,2013-10-15 07:40:00,
2013-10-15 03:45:00,56.6,51.2,30.11,WSW,253,0.0,7.0,82,0.00,,,0.00,Wunderground v.1.13,2013-10-15 07:45:00,
2013-10-15 03:55:00,56.3,51.2,30.11,WSW,253,0.0,7.0,83,0.00,,,0.00,Wunderground v.1.13,2013-10-15 07:55:00,
2013-10-15 04:00:00,56.3,51.2,30.11,WSW,253,0.0,7.0,83,0.00,,,0.00,Wunderground v.1.13,2013-10-15 08:00:00,
2013-10-15 04:05:00,56.2,51.1,30.11,WSW,253,0.0,7.0,83,0.00,,,0.00,Wunderground v.1.13,2013-10-15 08:05:00,
2013-10-15 04:10:00,56.2,51.4,30.11,WSW,253,0.0,7.0,84,0.00,,,0.00,Wunderground v.1.13,2013-10-15 08:10:00,
2013-10-15 04:15:00,56.0,51.2,30.11,WSW,253,0.0,7.0,84,0.00,,,0.00,Wunderground v.1.13,2013-10-15 08:15:00,
2013-10-15 04:25:00,56.2,51.4,30.11,WSW,253,0.0,7.0,84,0.00,,,0.00,Wunderground v.1.13,2013-10-15 08:25:00,
2013-10-15 04:30:00,56.3,51.8,30.11,WSW,253,0.0,7.0,85,0.00,,,0.00,Wunderground v.1.13,2013-10-15 08:30:00,
2013-10-15 04:35:00,56.6,52.5,30.11,WSW,253,0.0,7.0,86,0.00,,,0.00,Wunderground v.1.13,2013-10-15 08:35:00,
2013-10-15 04:40:00,56.7,52.6,30.11,SSW,213,0.0,7.0,86,0.00,,,0.00,Wunderground v.1.13,2013-10-15 08:40:00,
2013-10-15 04:45:00,56.7,52.9,30.11,WSW,253,0.0,7.0,87,0.00,,,0.00,Wunderground v.1.13,2013-10-15 08:45:00,
2013-10-15 04:50:00,56.9,53.1,30.10,WSW,253,0.0,7.0,87,0.00,,,0.00,Wunderground v.1.13,2013-10-15 08:50:00,
2013-10-15 04:55:00,56.9,52.8,30.10,WSW,253,0.0,7.0,86,0.00,,,0.00,Wunderground v.1.13,2013-10-15 08:55:00,
2013-10-15 05:00:00,56.7,52.6,30.10,WSW,253,0.0,7.0,86,0.00,,,0.00,Wunderground v.1.13,2013-10-15 09:00:00,
2013-10-15 05:05:00,56.6,52.1,30.10,WSW,253,0.0,7.0,85,0.00,,,0.00,Wunderground v.1.13,2013-10-15 09:05:00,
2013-10-15 05:10:00,56.5,52.0,30.10,WSW,253,0.0,7.0,85,0.00,,,0.00,Wunderground v.1.13,2013-10-15 09:10:00,
2013-10-15 05:15:00,56.5,52.0,30.10,WSW,253,0.0,7.0,85,0.00,,,0.00,Wunderground v.1.13,2013-10-15 09:15:00,
2013-10-15 05:20:00,56.5,52.0,30.10,WSW,253,0.0,7.0,85,0.00,,,0.00,Wunderground v.1.13,2013-10-15 09:20:00,
2013-10-15 05:30:00,56.5,52.0,30.10,WSW,253,0.0,7.0,85,0.00,,,0.00,Wunderground v.1.13,2013-10-15 09:30:00,
2013-10-15 05:35:00,56.5,52.0,30.09,WSW,253,0.0,7.0,85,0.00,,,0.00,Wunderground v.1.13,2013-10-15 09:35:00,
2013-10-15 05:40:00,56.5,52.0,30.09,WSW,253,0.0,7.0,85,0.00,,,0.00,Wunderground v.1.13,2013-10-15 09:40:00,
2013-10-15 05:45:00,56.6,52.5,30.09,WSW,253,0.0,7.0,86,0.00,,,0.00,Wunderground v.1.13,2013-10-15 09:45:00,
2013-10-15 05:50:00,56.9,52.8,30.10,WSW,253,0.0,7.0,86,0.00,,,0.00,Wunderground v.1.13,2013-10-15 09:50:00,
2013-10-15 05:55:00,57.0,52.9,30.10,WSW,253,0.0,7.0,86,0.00,,,0.00,Wunderground v.1.13,2013-10-15 09:55:00,
2013-10-15 06:05:00,57.2,53.0,30.09,WSW,253,0.0,7.0,86,0.00,,,0.00,Wunderground v.1.13,2013-10-15 10:05:00,
2013-10-15 06:10:00,57.3,53.1,30.09,WSW,253,0.0,7.0,86,0.00,,,0.00,Wunderground v.1.13,2013-10-15 10:10:00,
2013-10-15 06:15:00,57.5,53.3,30.09,WSW,253,0.0,7.0,86,0.00,,,0.00,Wunderground v.1.13,2013-10-15 10:15:00,
2013-10-15 06:20:00,57.6,53.4,30.10,WSW,253,0.0,7.0,86,0.00,,,0.00,Wunderground v.1.13,2013-10-15 10:20:00,
2013-10-15 06:25:00,57.8,54.0,30.10,WSW,253,0.0,7.0,87,0.00,,,0.00,Wunderground v.1.13,2013-10-15 10:25:00,
2013-10-15 06:30:00,58.0,53.8,30.10,WSW,253,0.0,7.0,86,0.00,,,0.00,Wunderground v.1.13,2013-10-15 10:30:00,
2013-10-15 06:35:00,58.1,53.9,30.09,WSW,253,0.0,7.0,86,0.00,,,0.00,Wunderground v.1.13,2013-10-15 10:35:00,
2013-10-15 06:40:00,58.1,53.9,30.09,WSW,253,0.0,7.0,86,0.00,,,0.00,Wunderground v.1.13,2013-10-15 10:40:00,
2013-10-15 06:45:00,58.1,53.9,30.09,WSW,253,0.0,7.0,86,0.00,,,0.00,Wunderground v.1.13,2013-10-15 10:45:00,
2013-10-15 06:50:00,58.3,54.1,30.09,WSW,253,0.0,7.0,86,0.00,,,0.00,Wunderground v.1.13,2013-10-15 10:50:00,
2013-10-15 06:55:00,58.4,54.5,30.09,WSW,253,0.0,7.0,87,0.00,,,0.00,Wunderground v.1.13,2013-10-15 10:55:00,
2013-10-15 07:05:00,58.7,54.8,30.08,WSW,253,0.0,7.0,87,0.00,,,0.00,Wunderground v.1.13,2013-10-15 11:05:00,
2013-10-15 07:10:00,58.9,55.0,30.08,WSW,253,0.0,7.0,87,0.00,,,0.00,Wunderground v.1.13,2013-10-15 11:10:00,
2013-10-15 07:15:00,58.9,55.0,30.08,WSW,253,0.0,7.0,87,0.00,,,0.00,Wunderground v.1.13,2013-10-15 11:15:00,
2013-10-15 07:20:00,59.0,55.1,30.08,WSW,253,0.0,7.0,87,0.00,,,0.00,Wunderground v.1.13,2013-10-15 11:20:00,
2013-10-15 07:25:00,59.2,55.3,30.08,WSW,253,0.0,7.0,87,0.00,,,0.00,Wunderground v.1.13,2013-10-15 11:25:00,
2013-10-15 07:30:00,59.2,55.0,30.08,ESE,120,0.0,7.0,86,0.00,,,0.00,Wunderground v.1.13,2013-10-15 11:30:00,
2013-10-15 07:40:00,59.2,55.0,30.08,ESE,120,0.0,7.0,86,0.00,,,0.00,Wunderground v.1.13,2013-10-15 11:40:00,
2013-10-15 07:45:00,59.3,55.1,30.08,ESE,120,0.0,7.0,86,0.00,,,0.00,Wunderground v.1.13,2013-10-15 11:45:00,
2013-10-15 07:50:00,59.5,55.3,30.08,ESE,120,0.0,7.0,86,0.00,,,0.00,Wunderground v.1.13,2013-10-15 11:50:00,
2013-10-15 07:55:00,59.6,55.4,30.08,ESE,120,0.0,7.0,86,0.00,,,0.00,Wunderground v.1.13,2013-10-15 11:55:00,
2013-10-15 08:00:00,59.9,55.7,30.08,ESE,120,1.0,7.0,86,0.00,,,0.00,Wunderground v.1.13,2013-10-15 12:00:00,
2013-10-15 08:10:00,59.9,55.7,30.08,NE,40,1.0,1.0,86,0.00,,,0.00,Wunderground v.1.13,2013-10-15 12:10:00,
2013-10-15 08:15:00,60.1,55.9,30.08,ENE,71,0.0,7.0,86,0.00,,,0.00,Wunderground v.1.13,2013-10-15 12:15:00,
2013-10-15 08:20:00,60.1,56.2,30.08,ENE,65,0.0,7.0,87,0.00,,,0.00,Wunderground v.1.13,2013-10-15 12:20:00,
2013-10-15 08:25:00,60.2,56.3,30.08,East,86,0.0,7.0,87,0.00,,,0.00,Wunderground v.1.13,2013-10-15 12:25:00,
2013-10-15 08:30:00,60.4,56.5,30.08,NE,41,1.0,7.0,87,0.00,,,0.00,Wunderground v.1.13,2013-10-15 12:30:00,
2013-10-15 08:35:00,60.5,56.9,30.07,North,0,2.0,7.0,88,0.00,,,0.00,Wunderground v.1.13,2013-10-15 12:35:00,
2013-10-15 08:45:00,61.0,57.4,30.07,North,357,2.0,2.0,88,0.00,,,0.00,Wunderground v.1.13,2013-10-15 12:45:00,
2013-10-15 08:50:00,61.3,57.4,30.07,North,0,1.0,1.0,87,0.00,,,0.00,Wunderground v.1.13,2013-10-15 12:50:00,
2013-10-15 08:55:00,61.3,57.4,30.07,North,0,0.0,7.0,87,0.00,,,0.00,Wunderground v.1.13,2013-10-15 12:55:00,
2013-10-15 09:00:00,61.5,57.6,30.07,NE,51,0.0,7.0,87,0.00,,,0.00,Wunderground v.1.13,2013-10-15 13:00:00,
2013-10-15 09:05:00,61.5,57.6,30.07,NNE,31,0.0,7.0,87,0.00,,,0.00,Wunderground v.1.13,2013-10-15 13:05:00,
2013-10-15 09:10:00,61.6,57.7,30.07,NNE,31,0.0,7.0,87,0.00,,,0.00,Wunderground v.1.13,2013-10-15 13:10:00,
2013-10-15 09:15:00,61.6,57.7,30.07,NE,42,0.0,7.0,87,0.00,,,0.00,Wunderground v.1.13,2013-10-15 13:15:00,
2013-10-15 09:20:00,61.8,57.9,30.07,ENE,59,0.0,7.0,87,0.00,,,0.00,Wunderground v.1.13,2013-10-15 13:20:00,
2013-10-15 09:30:00,61.8,57.9,30.07,NE,55,1.0,1.0,87,0.00,,,0.00,Wunderground v.1.13,2013-10-15 13:30:00,
2013-10-15 09:35:00,62.0,58.1,30.07,ENE,75,1.0,7.0,87,0.00,,,0.00,Wunderground v.1.13,2013-10-15 13:35:00,
2013-10-15 09:40:00,62.0,57.8,30.07,ENE,64,1.0,1.0,86,0.00,,,0.00,Wunderground v.1.13,2013-10-15 13:40:00,
2013-10-15 09:45:00,62.1,57.9,30.07,ENE,72,1.0,7.0,86,0.00,,,0.00,Wunderground v.1.13,2013-10-15 13:45:00,
2013-10-15 09:50:00,62.0,57.8,30.07,East,83,1.0,1.0,86,0.00,,,0.00,Wunderground v.1.13,2013-10-15 13:50:00,
2013-10-15 09:55:00,62.1,57.9,30.07,ENE,65,2.0,2.0,86,0.00,,,0.00,Wunderground v.1.13,2013-10-15 13:55:00,
2013-10-15 10:00:00,62.3,58.1,30.07,ENE,69,1.0,1.0,86,0.00,,,0.00,Wunderground v.1.13,2013-10-15 14:00:00,
2013-10-15 10:05:00,62.3,58.1,30.08,North,6,1.0,7.0,86,0.00,,,0.00,Wunderground v.1.13,2013-10-15 14:05:00,
2013-10-15 10:10:00,62.6,58.4,30.08,NE,41,2.0,2.0,86,0.00,,,0.00,Wunderground v.1.13,2013-10-15 14:10:00,
2013-10-15 10:20:00,63.1,58.5,30.08,NE,37,1.0,7.0,85,0.00,,,0.00,Wunderground v.1.13,2013-10-15 14:20:00,
2013-10-15 10:25:00,63.2,58.3,30.08,East,79,3.0,3.0,84,0.00,,,0.00,Wunderground v.1.13,2013-10-15 14:25:00,
2013-10-15 10:30:00,63.4,58.5,30.08,ENE,75,3.0,3.0,84,0.00,,,0.00,Wunderground v.1.13,2013-10-15 14:30:00,
2013-10-15 10:35:00,63.4,58.5,30.08,East,82,2.0,2.0,84,0.00,,,0.00,Wunderground v.1.13,2013-10-15 14:35:00,
2013-10-15 10:40:00,63.7,58.8,30.08,NE,47,2.0,2.0,84,0.00,,,0.00,Wunderground v.1.13,2013-10-15 14:40:00,
2013-10-15 10:50:00,64.3,58.7,30.07,North,0,3.0,3.0,82,0.00,,,0.00,Wunderground v.1.13,2013-10-15 14:50:00,
2013-10-15 10:55:00,64.5,58.9,30.07,North,356,2.0,7.0,82,0.00,,,0.00,Wunderground v.1.13,2013-10-15 14:55:00,
2013-10-15 11:00:00,64.7,58.7,30.07,North,0,2.0,7.0,81,0.00,,,0.00,Wunderground v.1.13,2013-10-15 15:00:00,
2013-10-15 11:05:00,65.0,59.0,30.07,East,85,2.0,2.0,81,0.00,,,0.00,Wunderground v.1.13,2013-10-15 15:05:00,
2013-10-15 11:10:00,65.2,58.9,30.07,East,79,2.0,7.0,80,0.00,,,0.00,Wunderground v.1.13,2013-10-15 15:10:00,
2013-10-15 11:15:00,65.8,59.5,30.07,North,352,2.0,2.0,80,0.00,,,0.00,Wunderground v.1.13,2013-10-15 15:15:00,
2013-10-15 11:25:00,67.1,59.3,30.06,North,0,1.0,1.0,76,0.00,,,0.00,Wunderground v.1.13,2013-10-15 15:25:00,
2013-10-15 11:30:00,67.8,59.6,30.06,NNW,343,2.0,7.0,75,0.00,,,0.00,Wunderground v.1.13,2013-10-15 15:30:00,
2013-10-15 11:35:00,68.1,59.5,30.05,North,6,2.0,7.0,74,0.00,,,0.00,Wunderground v.1.13,2013-10-15 15:35:00,
2013-10-15 11:40:00,68.4,59.4,30.05,North,0,2.0,7.0,73,0.00,,,0.00,Wunderground v.1.13,2013-10-15 15:40:00,
2013-10-15 11:45:00,68.9,59.5,30.05,ENE,69,2.0,7.0,72,0.00,,,0.00,Wunderground v.1.13,2013-10-15 15:45:00,
2013-10-15 11:55:00,69.4,60.0,30.05,ESE,123,2.0,2.0,72,0.00,,,0.00,Wunderground v.1.13,2013-10-15 15:55:00,
2013-10-15 12:00:00,70.1,59.9,30.05,East,82,2.0,2.0,70,0.00,,,0.00,Wunderground v.1.13,2013-10-15 16:00:00,
2013-10-15 12:05:00,70.8,60.1,30.05,ENE,73,2.0,2.0,69,0.00,,,0.00,Wunderground v.1.13,2013-10-15 16:05:00,
2013-10-15 12:10:00,71.5,60.0,30.05,NE,38,2.0,2.0,67,0.00,,,0.00,Wunderground v.1.13,2013-10-15 16:10:00,
2013-10-15 12:15:00,72.0,60.0,30.05,East,79,1.0,1.0,66,0.00,,,0.00,Wunderground v.1.13,2013-10-15 16:15:00,
2013-10-15 12:20:00,72.3,59.9,30.05,NE,49,2.0,7.0,65,0.00,,,0.00,Wunderground v.1.13,2013-10-15 16:20:00,
2013-10-15 12:25:00,73.0,60.1,30.05,East,85,3.0,3.0,64,0.00,,,0.00,Wunderground v.1.13,2013-10-15 16:25:00,
2013-10-15 12:30:00,73.2,60.3,30.05,SSE,147,2.0,2.0,64,0.00,,,0.00,Wunderground v.1.13,2013-10-15 16:30:00,
2013-10-15 12:35:00,73.2,59.4,30.04,East,89,2.0,7.0,62,0.00,,,0.00,Wunderground v.1.13,2013-10-15 16:35:00,
2013-10-15 12:40:00,73.3,59.0,30.04,SE,141,4.0,7.0,61,0.00,,,0.00,Wunderground v.1.13,2013-10-15 16:40:00,
2013-10-15 12:45:00,73.2,59.4,30.04,ESE,112,4.0,7.0,62,0.00,,,0.00,Wunderground v.1.13,2013-10-15 16:45:00,
2013-10-15 12:50:00,73.5,59.7,30.03,ENE,58,2.0,7.0,62,0.00,,,0.00,Wunderground v.1.13,2013-10-15 16:50:00,
2013-10-15 13:00:00,74.6,58.8,30.03,NE,44,4.0,4.0,58,0.00,,,0.00,Wunderground v.1.13,2013-10-15 17:00:00,
2013-10-15 13:05:00,75.1,58.8,30.02,ENE,76,3.0,7.0,57,0.00,,,0.00,Wunderground v.1.13,2013-10-15 17:05:00,
2013-10-15 13:10:00,75.3,58.5,30.02,East,95,4.0,7.0,56,0.00,,,0.00,Wunderground v.1.13,2013-10-15 17:10:00,
2013-10-15 13:15:00,75.1,59.3,30.02,East,97,4.0,4.0,58,0.00,,,0.00,Wunderground v.1.13,2013-10-15 17:15:00,
2013-10-15 13:20:00,74.9,58.6,30.02,ENE,78,3.0,3.0,57,0.00,,,0.00,Wunderground v.1.13,2013-10-15 17:20:00,
2013-10-15 13:30:00,75.6,58.8,30.02,East,82,3.0,3.0,56,0.00,,,0.00,Wunderground v.1.13,2013-10-15 17:30:00,
2013-10-15 13:35:00,76.0,59.2,30.01,NE,49,3.0,3.0,56,0.00,,,0.00,Wunderground v.1.13,2013-10-15 17:35:00,
2013-10-15 13:40:00,76.3,58.9,30.01,ESE,109,4.0,7.0,55,0.00,,,0.00,Wunderground v.1.13,2013-10-15 17:40:00,
2013-10-15 13:45:00,76.0,59.2,30.01,ENE,71,4.0,4.0,56,0.00,,,0.00,Wunderground v.1.13,2013-10-15 17:45:00,
2013-10-15 13:50:00,76.0,58.7,30.00,ENE,68,4.0,7.0,55,0.00,,,0.00,Wunderground v.1.13,2013-10-15 17:50:00,
2013-10-15 13:55:00,76.3,58.9,30.00,East,79,5.0,7.0,55,0.00,,,0.00,Wunderground v.1.13,2013-10-15 17:55:00,
2013-10-15 14:05:00,75.6,58.8,30.00,ESE,103,6.0,10.0,56,0.00,,,0.00,Wunderground v.1.13,2013-10-15 18:05:00,
2013-10-15 14:10:00,75.3,59.0,30.00,ESE,112,5.0,7.0,57,0.00,,,0.00,Wunderground v.1.13,2013-10-15 18:10:00,
2013-10-15 14:15:00,75.4,59.1,30.00,ENE,78,5.0,7.0,57,0.00,,,0.00,Wunderground v.1.13,2013-10-15 18:15:00,
2013-10-15 14:20:00,76.0,59.2,29.99,ENE,62,5.0,7.0,56,0.00,,,0.00,Wunderground v.1.13,2013-10-15 18:20:00,
2013-10-15 14:25:00,76.5,58.6,29.99,East,82,5.0,8.0,54,0.00,,,0.00,Wunderground v.1.13,2013-10-15 18:25:00,
2013-10-15 14:35:00,76.1,59.3,29.99,ENE,78,5.0,10.0,56,0.00,,,0.00,Wunderground v.1.13,2013-10-15 18:35:00,
2013-10-15 14:40:00,75.8,59.0,29.99,ESE,104,6.0,6.0,56,0.00,,,0.00,Wunderground v.1.13,2013-10-15 18:40:00,
2013-10-15 14:45:00,75.3,59.5,29.99,ENE,68,6.0,6.0,58,0.00,,,0.00,Wunderground v.1.13,2013-10-15 18:45:00,
2013-10-15 14:50:00,75.3,59.0,29.98,ENE,75,5.0,7.0,57,0.00,,,0.00,Wunderground v.1.13,2013-10-15 18:50:00,
2013-10-15 14:55:00,75.6,58.8,29.98,ENE,58,5.0,7.0,56,0.00,,,0.00,Wunderground v.1.13,2013-10-15 18:55:00,
2013-10-15 15:00:00,75.6,58.8,29.98,ENE,68,6.0,6.0,56,0.00,,,0.00,Wunderground v.1.13,2013-10-15 19:00:00,
2013-10-15 15:10:00,75.1,59.3,29.97,East,92,4.0,4.0,58,0.00,,,0.00,Wunderground v.1.13,2013-10-15 19:10:00,
2013-10-15 15:15:00,75.1,59.3,29.97,ENE,65,3.0,7.0,58,0.00,,,0.00,Wunderground v.1.13,2013-10-15 19:15:00,
2013-10-15 15:20:00,76.0,59.2,29.97,West,275,4.0,7.0,56,0.00,,,0.00,Wunderground v.1.13,2013-10-15 19:20:00,
2013-10-15 15:25:00,76.8,58.9,29.97,ENE,71,3.0,7.0,54,0.00,,,0.00,Wunderground v.1.13,2013-10-15 19:25:00,
2013-10-15 15:30:00,77.0,59.1,29.97,ENE,75,3.0,7.0,54,0.00,,,0.00,Wunderground v.1.13,2013-10-15 19:30:00,
2013-10-15 15:35:00,76.8,58.9,29.97,East,99,5.0,7.0,54,0.00,,,0.00,Wunderground v.1.13,2013-10-15 19:35:00,
2013-10-15 15:40:00,76.8,59.4,29.97,ENE,59,4.0,7.0,55,0.00,,,0.00,Wunderground v.1.13,2013-10-15 19:40:00,
2013-10-15 15:45:00,76.7,59.3,29.97,East,100,4.0,4.0,55,0.00,,,0.00,Wunderground v.1.13,2013-10-15 19:45:00,
2013-10-15 15:50:00,76.7,59.3,29.97,East,79,4.0,7.0,55,0.00,,,0.00,Wunderground v.1.13,2013-10-15 19:50:00,
2013-10-15 15:55:00,77.4,58.9,29.97,North,359,3.0,3.0,53,0.00,,,0.00,Wunderground v.1.13,2013-10-15 19:55:00,
2013-10-15 16:00:00,77.9,58.9,29.97,ENE,62,3.0,7.0,52,0.00,,,0.00,Wunderground v.1.13,2013-10-15 20:00:00,
2013-10-15 16:10:00,77.9,58.9,29.96,ENE,76,4.0,8.0,52,0.00,,,0.00,Wunderground v.1.13,2013-10-15 20:10:00,
2013-10-15 16:15:00,78.1,59.0,29.96,North,1,4.0,4.0,52,0.00,,,0.00,Wunderground v.1.13,2013-10-15 20:15:00,
2013-10-15 16:20:00,78.1,59.0,29.96,North,4,4.0,7.0,52,0.00,,,0.00,Wunderground v.1.13,2013-10-15 20:20:00,
2013-10-15 16:25:00,78.1,58.5,29.96,North,359,4.0,7.0,51,0.00,,,0.00,Wunderground v.1.13,2013-10-15 20:25:00,
2013-10-15 16:30:00,78.1,59.0,29.96,SW,227,3.0,3.0,52,0.00,,,0.00,Wunderground v.1.13,2013-10-15 20:30:00,
2013-10-15 16:35:00,78.1,59.0,29.96,ENE,72,4.0,7.0,52,0.00,,,0.00,Wunderground v.1.13,2013-10-15 20:35:00,
2013-10-15 16:45:00,77.7,59.2,29.96,North,357,4.0,7.0,53,0.00,,,0.00,Wunderground v.1.13,2013-10-15 20:45:00,
2013-10-15 16:50:00,77.6,59.1,29.96,NNE,20,3.0,3.0,53,0.00,,,0.00,Wunderground v.1.13,2013-10-15 20:50:00,
2013-10-15 16:55:00,77.4,58.9,29.96,NE,35,3.0,7.0,53,0.00,,,0.00,Wunderground v.1.13,2013-10-15 20:55:00,
2013-10-15 17:00:00,77.2,59.3,29.96,East,93,3.0,7.0,54,0.00,,,0.00,Wunderground v.1.13,2013-10-15 21:00:00,
2013-10-15 17:05:00,77.4,58.9,29.96,West,281,3.0,7.0,53,0.00,,,0.00,Wunderground v.1.13,2013-10-15 21:05:00,
2013-10-15 17:10:00,77.4,58.9,29.96,ESE,116,3.0,7.0,53,0.00,,,0.00,Wunderground v.1.13,2013-10-15 21:10:00,
2013-10-15 17:15:00,77.2,58.7,29.96,East,93,4.0,7.0,53,0.00,,,0.00,Wunderground v.1.13,2013-10-15 21:15:00,
2013-10-15 17:20:00,76.8,58.9,29.95,ESE,102,4.0,7.0,54,0.00,,,0.00,Wunderground v.1.13,2013-10-15 21:20:00,
2013-10-15 17:25:00,76.5,59.1,29.95,East,92,4.0,7.0,55,0.00,,,0.00,Wunderground v.1.13,2013-10-15 21:25:00,
2013-10-15 17:30:00,76.5,59.1,29.95,East,85,4.0,7.0,55,0.00,,,0.00,Wunderground v.1.13,2013-10-15 21:30:00,
2013-10-15 17:35:00,76.3,58.9,29.95,East,96,5.0,7.0,55,0.00,,,0.00,Wunderground v.1.13,2013-10-15 21:35:00,
2013-10-15 17:40:00,76.1,58.8,29.95,ESE,113,5.0,5.0,55,0.00,,,0.00,Wunderground v.1.13,2013-10-15 21:40:00,
2013-10-15 17:50:00,76.3,58.9,29.95,East,82,5.0,5.0,55,0.00,,,0.00,Wunderground v.1.13,2013-10-15 21:50:00,
2013-10-15 17:55:00,76.3,58.9,29.95,North,0,4.0,4.0,55,0.00,,,0.00,Wunderground v.1.13,2013-10-15 21:55:00,
2013-10-15 18:00:00,76.1,58.8,29.95,ENE,75,4.0,7.0,55,0.00,,,0.00,Wunderground v.1.13,2013-10-15 22:00:00,
2013-10-15 18:05:00,76.0,58.7,29.94,NE,55,5.0,7.0,55,0.00,,,0.00,Wunderground v.1.13,2013-10-15 22:05:00,
2013-10-15 18:10:00,75.8,59.0,29.94,East,88,5.0,5.0,56,0.00,,,0.00,Wunderground v.1.13,2013-10-15 22:10:00,
2013-10-15 18:20:00,75.6,58.8,29.94,ENE,59,4.0,7.0,56,0.00,,,0.00,Wunderground v.1.13,2013-10-15 22:20:00,
2013-10-15 18:25:00,75.6,58.8,29.94,ENE,76,3.0,7.0,56,0.00,,,0.00,Wunderground v.1.13,2013-10-15 22:25:00,
2013-10-15 18:30:00,75.4,58.6,29.94,East,83,4.0,12.0,56,0.00,,,0.00,Wunderground v.1.13,2013-10-15 22:30:00,
2013-10-15 18:35:00,75.1,58.3,29.94,NE,56,4.0,7.0,56,0.00,,,0.00,Wunderground v.1.13,2013-10-15 22:35:00,
2013-10-15 18:40:00,75.1,58.8,29.94,ENE,72,4.0,4.0,57,0.00,,,0.00,Wunderground v.1.13,2013-10-15 22:40:00,
2013-10-15 18:50:00,75.3,59.0,29.93,ENE,68,2.0,7.0,57,0.00,,,0.00,Wunderground v.1.13,2013-10-15 22:50:00,
2013-10-15 18:55:00,75.4,59.1,29.93,NE,42,2.0,7.0,57,0.00,,,0.00,Wunderground v.1.13,2013-10-15 22:55:00,
2013-10-15 19:00:00,75.3,59.0,29.93,East,88,1.0,1.0,57,0.00,,,0.00,Wunderground v.1.13,2013-10-15 23:00:00,
2013-10-15 19:05:00,75.1,58.8,29.93,NE,37,1.0,7.0,57,0.00,,,0.00,Wunderground v.1.13,2013-10-15 23:05:00,
2013-10-15 19:10:00,74.9,59.1,29.93,NE,40,1.0,1.0,58,0.00,,,0.00,Wunderground v.1.13,2013-10-15 23:10:00,
2013-10-15 19:15:00,74.9,59.1,29.93,NE,40,1.0,7.0,58,0.00,,,0.00,Wunderground v.1.13,2013-10-15 23:15:00,
2013-10-15 19:25:00,75.1,59.3,29.93,ENE,58,1.0,7.0,58,0.00,,,0.00,Wunderground v.1.13,2013-10-15 23:25:00,
2013-10-15 19:30:00,75.1,59.3,29.93,NNE,24,1.0,1.0,58,0.00,,,0.00,Wunderground v.1.13,2013-10-15 23:30:00,
2013-10-15 19:35:00,74.9,59.1,29.93,ENE,59,1.0,7.0,58,0.00,,,0.00,Wunderground v.1.13,2013-10-15 23:35:00,
2013-10-15 19:40:00,74.7,58.9,29.93,East,89,1.0,1.0,58,0.00,,,0.00,Wunderground v.1.13,2013-10-15 23:40:00,
2013-10-15 19:45:00,74.4,59.1,29.93,East,95,1.0,1.0,59,0.00,,,0.00,Wunderground v.1.13,2013-10-15 23:45:00,
2013-10-15 19:50:00,73.9,59.1,29.94,East,82,1.0,7.0,60,0.00,,,0.00,Wunderground v.1.13,2013-10-15 23:50:00,
2013-10-15 19:55:00,73.5,58.8,29.94,NE,41,2.0,7.0,60,0.00,,,0.00,Wunderground v.1.13,2013-10-15 23:55:00,
2013-10-15 20:00:00,73.2,58.9,29.94,ENE,62,4.0,4.0,61,0.00,,,0.00,Wunderground v.1.13,2013-10-16 00:00:00,
2013-10-15 20:05:00,73.2,58.9,29.94,East,93,3.0,3.0,61,0.00,,,0.00,Wunderground v.1.13,2013-10-16 00:05:00,
2013-10-15 20:10:00,73.2,58.9,29.94,ENE,66,2.0,7.0,61,0.00,,,0.00,Wunderground v.1.13,2013-10-16 00:10:00,
2013-10-15 20:15:00,73.2,58.5,29.94,North,0,1.0,7.0,60,0.00,,,0.00,Wunderground v.1.13,2013-10-16 00:15:00,
2013-10-15 20:25:00,73.3,58.6,29.92,ENE,78,2.0,2.0,60,0.00,,,0.00,Wunderground v.1.13,2013-10-16 00:25:00,
2013-10-15 20:30:00,73.3,58.6,29.92,North,0,2.0,2.0,60,0.00,,,0.00,Wunderground v.1.13,2013-10-16 00:30:00,
2013-10-15 20:35:00,73.3,58.6,29.93,North,6,1.0,1.0,60,0.00,,,0.00,Wunderground v.1.13,2013-10-16 00:35:00,
2013-10-15 20:40:00,73.3,58.6,29.93,East,80,1.0,7.0,60,0.00,,,0.00,Wunderground v.1.13,2013-10-16 00:40:00,
2013-10-15 20:45:00,73.2,58.5,29.93,East,80,1.0,1.0,60,0.00,,,0.00,Wunderground v.1.13,2013-10-16 00:45:00,
2013-10-15 20:50:00,73.2,58.5,29.93,ENE,72,1.0,7.0,60,0.00,,,0.00,Wunderground v.1.13,2013-10-16 00:50:00,
2013-10-15 21:00:00,72.7,58.5,29.93,East,79,1.0,1.0,61,0.00,,,0.00,Wunderground v.1.13,2013-10-16 01:00:00,
2013-10-15 21:05:00,72.3,58.5,29.94,East,79,1.0,7.0,62,0.00,,,0.00,Wunderground v.1.13,2013-10-16 01:05:00,
2013-10-15 21:10:00,72.1,58.4,29.94,East,79,1.0,7.0,62,0.00,,,0.00,Wunderground v.1.13,2013-10-16 01:10:00,
2013-10-15 21:15:00,72.1,58.4,29.94,East,79,2.0,2.0,62,0.00,,,0.00,Wunderground v.1.13,2013-10-16 01:15:00,
2013-10-15 21:20:00,72.3,58.5,29.94,East,83,2.0,7.0,62,0.00,,,0.00,Wunderground v.1.13,2013-10-16 01:20:00,
2013-10-15 21:30:00,72.3,58.5,29.94,NNE,23,1.0,1.0,62,0.00,,,0.00,Wunderground v.1.13,2013-10-16 01:30:00,
2013-10-15 21:35:00,72.0,58.7,29.93,East,85,1.0,7.0,63,0.00,,,0.00,Wunderground v.1.13,2013-10-16 01:35:00,
2013-10-15 21:40:00,71.6,58.8,29.93,ENE,61,1.0,1.0,64,0.00,,,0.00,Wunderground v.1.13,2013-10-16 01:40:00,
2013-10-15 21:45:00,71.3,58.5,29.93,ENE,64,1.0,7.0,64,0.00,,,0.00,Wunderground v.1.13,2013-10-16 01:45:00,
2013-10-15 21:50:00,71.3,58.9,29.94,NE,54,1.0,1.0,65,0.00,,,0.00,Wunderground v.1.13,2013-10-16 01:50:00,
2013-10-15 21:55:00,71.3,58.5,29.94,NE,56,1.0,1.0,64,0.00,,,0.00,Wunderground v.1.13,2013-10-16 01:55:00,
2013-10-15 22:00:00,71.3,58.5,29.94,ENE,61,0.0,7.0,64,0.00,,,0.00,Wunderground v.1.13,2013-10-16 02:00:00,
2013-10-15 22:05:00,71.3,58.5,29.94,NE,55,1.0,1.0,64,0.00,,,0.00,Wunderground v.1.13,2013-10-16 02:05:00,
2013-10-15 22:10:00,71.1,58.7,29.94,ENE,68,1.0,1.0,65,0.00,,,0.00,Wunderground v.1.13,2013-10-16 02:10:00,
2013-10-15 22:15:00,71.1,58.7,29.94,East,82,1.0,7.0,65,0.00,,,0.00,Wunderground v.1.13,2013-10-16 02:15:00,
2013-10-15 22:20:00,70.8,58.9,29.94,East,85,2.0,2.0,66,0.00,,,0.00,Wunderground v.1.13,2013-10-16 02:20:00,
2013-10-15 22:25:00,70.3,58.8,29.94,East,85,1.0,7.0,67,0.00,,,0.00,Wunderground v.1.13,2013-10-16 02:25:00,
2013-10-15 22:35:00,70.1,58.6,29.94,East,83,1.0,7.0,67,0.00,,,0.00,Wunderground v.1.13,2013-10-16 02:35:00,
2013-10-15 22:40:00,70.4,58.5,29.94,East,83,1.0,1.0,66,0.00,,,0.00,Wunderground v.1.13,2013-10-16 02:40:00,
2013-10-15 22:45:00,70.6,58.7,29.94,East,83,1.0,1.0,66,0.00,,,0.00,Wunderground v.1.13,2013-10-16 02:45:00,
2013-10-15 22:50:00,70.6,58.7,29.95,East,83,0.0,7.0,66,0.00,,,0.00,Wunderground v.1.13,2013-10-16 02:50:00,
2013-10-15 22:55:00,70.4,58.1,29.95,East,83,0.0,7.0,65,0.00,,,0.00,Wunderground v.1.13,2013-10-16 02:55:00,
2013-10-15 23:05:00,70.6,58.7,29.95,East,83,0.0,7.0,66,0.00,,,0.00,Wunderground v.1.13,2013-10-16 03:05:00,
2013-10-15 23:10:00,70.6,58.3,29.95,North,0,1.0,7.0,65,0.00,,,0.00,Wunderground v.1.13,2013-10-16 03:10:00,
2013-10-15 23:15:00,70.8,58.4,29.95,North,359,1.0,1.0,65,0.00,,,0.00,Wunderground v.1.13,2013-10-16 03:15:00,
2013-10-15 23:20:00,70.8,58.4,29.93,ENE,69,1.0,7.0,65,0.00,,,0.00,Wunderground v.1.13,2013-10-16 03:20:00,
2013-10-15 23:25:00,70.8,58.4,29.93,ENE,68,1.0,7.0,65,0.00,,,0.00,Wunderground v.1.13,2013-10-16 03:25:00,
2013-10-15 23:35:00,70.4,58.5,29.93,East,80,2.0,7.0,66,0.00,,,0.00,Wunderground v.1.13,2013-10-16 03:35:00,
2013-10-15 23:40:00,70.4,58.5,29.93,East,80,1.0,1.0,66,0.00,,,0.00,Wunderground v.1.13,2013-10-16 03:40:00,
2013-10-15 23:45:00,69.9,58.9,29.93,East,80,1.0,7.0,68,0.00,,,0.00,Wunderground v.1.13,2013-10-16 03:45:00,
2013-10-15 23:50:00,69.9,58.4,29.93,ENE,75,1.0,1.0,67,0.00,,,0.00,Wunderground v.1.13,2013-10-16 03:50:00,
2013-10-15 23:55:00,69.9,58.4,29.93,ENE,68,1.0,1.0,67,0.00,,,0.00,Wunderground v.1.13,2013-10-16 03:55:00,